sensor_id;sensor_type;location;lat;lon;timestamp;P1;durP1;ratioP1;P2;durP2;ratioP2
40807;SDS011;26523;52.504;13.498;2023-12-07T00:00:49;20.33;;;7.78;;
40807;SDS011;26523;52.504;13.498;2023-12-07T00:03:14;18.63;;;8.30;;
40807;SDS011;26523;52.504;13.498;2023-12-07T00:05:40;21.50;;;8.68;;
40807;SDS011;26523;52.504;13.498;2023-12-07T00:08:08;16.98;;;6.95;;
40807;SDS011;26523;52.504;13.498;2023-12-07T00:10:35;18.48;;;8.10;;
40807;SDS011;26523;52.504;13.498;2023-12-07T00:13:01;25.80;;;9.40;;
40807;SDS011;26523;52.504;13.498;2023-12-07T00:15:27;21.75;;;9.35;;
40807;SDS011;26523;52.504;13.498;2023-12-07T00:17:53;25.23;;;9.60;;
40807;SDS011;26523;52.504;13.498;2023-12-07T00:20:18;18.48;;;8.45;;
40807;SDS011;26523;52.504;13.498;2023-12-07T00:22:44;16.27;;;7.07;;
40807;SDS011;26523;52.504;13.498;2023-12-07T00:25:10;18.50;;;7.82;;
40807;SDS011;26523;52.504;13.498;2023-12-07T00:27:36;21.75;;;8.73;;
40807;SDS011;26523;52.504;13.498;2023-12-07T00:30:02;15.32;;;7.53;;
40807;SDS011;26523;52.504;13.498;2023-12-07T00:32:28;22.85;;;8.20;;
40807;SDS011;26523;52.504;13.498;2023-12-07T00:34:54;20.80;;;8.65;;
40807;SDS011;26523;52.504;13.498;2023-12-07T00:37:20;21.83;;;8.00;;
40807;SDS011;26523;52.504;13.498;2023-12-07T00:39:45;24.17;;;8.95;;
40807;SDS011;26523;52.504;13.498;2023-12-07T00:42:11;16.88;;;6.82;;
40807;SDS011;26523;52.504;13.498;2023-12-07T00:44:40;20.00;;;8.77;;
40807;SDS011;26523;52.504;13.498;2023-12-07T00:47:06;16.75;;;8.57;;
40807;SDS011;26523;52.504;13.498;2023-12-07T00:49:32;22.70;;;9.00;;
40807;SDS011;26523;52.504;13.498;2023-12-07T00:51:58;24.75;;;11.13;;
40807;SDS011;26523;52.504;13.498;2023-12-07T00:54:23;19.58;;;8.63;;
40807;SDS011;26523;52.504;13.498;2023-12-07T00:56:49;19.08;;;8.55;;
40807;SDS011;26523;52.504;13.498;2023-12-07T00:59:14;18.42;;;8.02;;
40807;SDS011;26523;52.504;13.498;2023-12-07T01:01:40;22.80;;;9.13;;
40807;SDS011;26523;52.504;13.498;2023-12-07T01:04:06;20.05;;;9.48;;
40807;SDS011;26523;52.504;13.498;2023-12-07T01:06:31;19.05;;;8.23;;
40807;SDS011;26523;52.504;13.498;2023-12-07T01:08:57;18.52;;;7.78;;
40807;SDS011;26523;52.504;13.498;2023-12-07T01:11:22;17.98;;;7.50;;
40807;SDS011;26523;52.504;13.498;2023-12-07T01:13:48;19.08;;;8.55;;
40807;SDS011;26523;52.504;13.498;2023-12-07T01:16:14;23.52;;;9.60;;
40807;SDS011;26523;52.504;13.498;2023-12-07T01:18:39;20.27;;;7.97;;
40807;SDS011;26523;52.504;13.498;2023-12-07T01:21:05;20.73;;;8.48;;
40807;SDS011;26523;52.504;13.498;2023-12-07T01:23:31;18.42;;;7.80;;
40807;SDS011;26523;52.504;13.498;2023-12-07T01:25:57;16.45;;;7.43;;
40807;SDS011;26523;52.504;13.498;2023-12-07T01:28:22;19.48;;;8.50;;
40807;SDS011;26523;52.504;13.498;2023-12-07T01:30:48;21.27;;;8.48;;
40807;SDS011;26523;52.504;13.498;2023-12-07T01:33:14;20.88;;;8.63;;
40807;SDS011;26523;52.504;13.498;2023-12-07T01:35:40;18.23;;;7.68;;
40807;SDS011;26523;52.504;13.498;2023-12-07T01:38:06;21.85;;;8.63;;
40807;SDS011;26523;52.504;13.498;2023-12-07T01:40:31;21.92;;;8.55;;
40807;SDS011;26523;52.504;13.498;2023-12-07T01:42:57;19.95;;;8.40;;
40807;SDS011;26523;52.504;13.498;2023-12-07T01:45:22;18.40;;;7.85;;
40807;SDS011;26523;52.504;13.498;2023-12-07T01:47:49;19.80;;;9.00;;
40807;SDS011;26523;52.504;13.498;2023-12-07T01:50:17;24.98;;;8.68;;
40807;SDS011;26523;52.504;13.498;2023-12-07T01:52:48;24.92;;;8.98;;
40807;SDS011;26523;52.504;13.498;2023-12-07T01:55:17;23.83;;;8.18;;
40807;SDS011;26523;52.504;13.498;2023-12-07T01:57:44;19.60;;;8.48;;
40807;SDS011;26523;52.504;13.498;2023-12-07T02:00:10;21.73;;;9.27;;
40807;SDS011;26523;52.504;13.498;2023-12-07T02:02:37;17.15;;;8.57;;
40807;SDS011;26523;52.504;13.498;2023-12-07T02:05:04;22.40;;;9.48;;
40807;SDS011;26523;52.504;13.498;2023-12-07T02:07:30;25.55;;;8.35;;
40807;SDS011;26523;52.504;13.498;2023-12-07T02:09:57;23.17;;;9.68;;
40807;SDS011;26523;52.504;13.498;2023-12-07T02:12:23;19.52;;;8.02;;
40807;SDS011;26523;52.504;13.498;2023-12-07T02:14:50;20.08;;;9.10;;
40807;SDS011;26523;52.504;13.498;2023-12-07T02:17:20;20.92;;;7.95;;
40807;SDS011;26523;52.504;13.498;2023-12-07T02:20:16;21.50;;;8.75;;
40807;SDS011;26523;52.504;13.498;2023-12-07T02:22:49;23.52;;;8.93;;
40807;SDS011;26523;52.504;13.498;2023-12-07T02:25:20;22.92;;;8.98;;
40807;SDS011;26523;52.504;13.498;2023-12-07T02:28:06;23.20;;;9.27;;
40807;SDS011;26523;52.504;13.498;2023-12-07T02:30:32;22.23;;;8.98;;
40807;SDS011;26523;52.504;13.498;2023-12-07T02:32:58;20.63;;;8.27;;
40807;SDS011;26523;52.504;13.498;2023-12-07T02:35:23;21.92;;;8.27;;
40807;SDS011;26523;52.504;13.498;2023-12-07T02:37:50;23.05;;;8.38;;
40807;SDS011;26523;52.504;13.498;2023-12-07T02:40:17;18.60;;;8.00;;
40807;SDS011;26523;52.504;13.498;2023-12-07T02:42:46;18.00;;;7.65;;
40807;SDS011;26523;52.504;13.498;2023-12-07T02:45:13;21.42;;;8.50;;
40807;SDS011;26523;52.504;13.498;2023-12-07T02:47:39;18.95;;;8.20;;
40807;SDS011;26523;52.504;13.498;2023-12-07T02:50:06;21.65;;;8.80;;
40807;SDS011;26523;52.504;13.498;2023-12-07T02:52:33;21.73;;;8.52;;
40807;SDS011;26523;52.504;13.498;2023-12-07T02:54:59;21.75;;;9.75;;
40807;SDS011;26523;52.504;13.498;2023-12-07T02:57:24;21.25;;;9.77;;
40807;SDS011;26523;52.504;13.498;2023-12-07T02:59:50;18.77;;;8.50;;
40807;SDS011;26523;52.504;13.498;2023-12-07T03:02:16;20.52;;;9.55;;
40807;SDS011;26523;52.504;13.498;2023-12-07T03:04:41;22.15;;;9.27;;
40807;SDS011;26523;52.504;13.498;2023-12-07T03:07:07;22.95;;;9.50;;
40807;SDS011;26523;52.504;13.498;2023-12-07T03:09:32;22.13;;;8.90;;
40807;SDS011;26523;52.504;13.498;2023-12-07T03:11:58;20.60;;;8.52;;
40807;SDS011;26523;52.504;13.498;2023-12-07T03:14:24;24.83;;;9.38;;
40807;SDS011;26523;52.504;13.498;2023-12-07T03:16:49;23.92;;;9.43;;
40807;SDS011;26523;52.504;13.498;2023-12-07T03:19:15;24.65;;;7.88;;
40807;SDS011;26523;52.504;13.498;2023-12-07T03:21:41;19.73;;;8.40;;
40807;SDS011;26523;52.504;13.498;2023-12-07T03:24:08;19.98;;;8.88;;
40807;SDS011;26523;52.504;13.498;2023-12-07T03:26:34;23.70;;;8.55;;
40807;SDS011;26523;52.504;13.498;2023-12-07T03:29:00;22.88;;;8.95;;
40807;SDS011;26523;52.504;13.498;2023-12-07T03:31:25;22.00;;;8.85;;
40807;SDS011;26523;52.504;13.498;2023-12-07T03:33:52;22.05;;;9.70;;
40807;SDS011;26523;52.504;13.498;2023-12-07T03:36:18;28.95;;;9.48;;
40807;SDS011;26523;52.504;13.498;2023-12-07T03:38:43;20.48;;;9.10;;
40807;SDS011;26523;52.504;13.498;2023-12-07T03:41:09;23.02;;;9.65;;
40807;SDS011;26523;52.504;13.498;2023-12-07T03:43:35;22.05;;;8.63;;
40807;SDS011;26523;52.504;13.498;2023-12-07T03:46:03;17.48;;;8.25;;
40807;SDS011;26523;52.504;13.498;2023-12-07T03:48:29;19.98;;;8.38;;
40807;SDS011;26523;52.504;13.498;2023-12-07T03:50:55;25.88;;;8.80;;
40807;SDS011;26523;52.504;13.498;2023-12-07T03:53:21;17.70;;;8.30;;
40807;SDS011;26523;52.504;13.498;2023-12-07T03:55:46;20.38;;;8.85;;
40807;SDS011;26523;52.504;13.498;2023-12-07T03:58:12;26.55;;;8.98;;
40807;SDS011;26523;52.504;13.498;2023-12-07T04:00:38;19.80;;;8.82;;
40807;SDS011;26523;52.504;13.498;2023-12-07T04:03:04;20.13;;;8.48;;
40807;SDS011;26523;52.504;13.498;2023-12-07T04:05:30;21.65;;;8.23;;
40807;SDS011;26523;52.504;13.498;2023-12-07T04:07:56;20.85;;;10.15;;
40807;SDS011;26523;52.504;13.498;2023-12-07T04:10:22;26.13;;;9.60;;
40807;SDS011;26523;52.504;13.498;2023-12-07T04:12:49;24.92;;;9.18;;
40807;SDS011;26523;52.504;13.498;2023-12-07T04:15:15;21.85;;;9.68;;
40807;SDS011;26523;52.504;13.498;2023-12-07T04:17:40;25.02;;;9.30;;
40807;SDS011;26523;52.504;13.498;2023-12-07T04:20:06;22.15;;;9.35;;
40807;SDS011;26523;52.504;13.498;2023-12-07T04:22:32;22.92;;;10.05;;
40807;SDS011;26523;52.504;13.498;2023-12-07T04:24:58;21.55;;;9.23;;
40807;SDS011;26523;52.504;13.498;2023-12-07T04:27:24;23.55;;;10.02;;
40807;SDS011;26523;52.504;13.498;2023-12-07T04:29:49;21.80;;;9.88;;
40807;SDS011;26523;52.504;13.498;2023-12-07T04:32:15;20.70;;;8.90;;
40807;SDS011;26523;52.504;13.498;2023-12-07T04:34:40;23.08;;;8.98;;
40807;SDS011;26523;52.504;13.498;2023-12-07T04:37:06;30.27;;;10.50;;
40807;SDS011;26523;52.504;13.498;2023-12-07T04:39:32;25.73;;;10.38;;
40807;SDS011;26523;52.504;13.498;2023-12-07T04:41:57;21.63;;;9.85;;
40807;SDS011;26523;52.504;13.498;2023-12-07T04:44:23;21.02;;;9.10;;
40807;SDS011;26523;52.504;13.498;2023-12-07T04:46:50;24.73;;;10.07;;
40807;SDS011;26523;52.504;13.498;2023-12-07T04:49:16;26.08;;;10.88;;
40807;SDS011;26523;52.504;13.498;2023-12-07T04:51:42;21.45;;;8.80;;
40807;SDS011;26523;52.504;13.498;2023-12-07T04:54:11;28.08;;;9.05;;
40807;SDS011;26523;52.504;13.498;2023-12-07T04:56:39;25.30;;;10.07;;
40807;SDS011;26523;52.504;13.498;2023-12-07T04:59:08;23.83;;;10.15;;
40807;SDS011;26523;52.504;13.498;2023-12-07T05:01:38;28.02;;;10.80;;
40807;SDS011;26523;52.504;13.498;2023-12-07T05:04:04;26.23;;;10.77;;
40807;SDS011;26523;52.504;13.498;2023-12-07T05:06:32;26.30;;;10.88;;
40807;SDS011;26523;52.504;13.498;2023-12-07T05:08:59;28.67;;;10.02;;
40807;SDS011;26523;52.504;13.498;2023-12-07T05:11:24;29.48;;;11.07;;
40807;SDS011;26523;52.504;13.498;2023-12-07T05:13:52;27.55;;;11.40;;
40807;SDS011;26523;52.504;13.498;2023-12-07T05:16:18;29.20;;;11.95;;
40807;SDS011;26523;52.504;13.498;2023-12-07T05:18:43;28.98;;;10.75;;
40807;SDS011;26523;52.504;13.498;2023-12-07T05:21:09;30.35;;;11.35;;
40807;SDS011;26523;52.504;13.498;2023-12-07T05:23:35;28.58;;;11.38;;
40807;SDS011;26523;52.504;13.498;2023-12-07T05:26:00;29.52;;;11.73;;
40807;SDS011;26523;52.504;13.498;2023-12-07T05:28:26;27.20;;;10.25;;
40807;SDS011;26523;52.504;13.498;2023-12-07T05:30:52;33.58;;;11.43;;
40807;SDS011;26523;52.504;13.498;2023-12-07T05:33:18;28.30;;;9.35;;
40807;SDS011;26523;52.504;13.498;2023-12-07T05:35:46;24.75;;;9.13;;
40807;SDS011;26523;52.504;13.498;2023-12-07T05:38:12;32.03;;;11.63;;
40807;SDS011;26523;52.504;13.498;2023-12-07T05:40:37;28.83;;;10.73;;
40807;SDS011;26523;52.504;13.498;2023-12-07T05:43:03;26.65;;;10.02;;
40807;SDS011;26523;52.504;13.498;2023-12-07T05:45:29;29.55;;;11.15;;
40807;SDS011;26523;52.504;13.498;2023-12-07T05:47:55;27.73;;;11.32;;
40807;SDS011;26523;52.504;13.498;2023-12-07T05:50:21;31.30;;;10.95;;
40807;SDS011;26523;52.504;13.498;2023-12-07T05:52:47;34.38;;;11.77;;
40807;SDS011;26523;52.504;13.498;2023-12-07T05:55:12;38.72;;;12.60;;
40807;SDS011;26523;52.504;13.498;2023-12-07T05:57:38;28.70;;;10.30;;
40807;SDS011;26523;52.504;13.498;2023-12-07T06:00:04;23.73;;;10.18;;
40807;SDS011;26523;52.504;13.498;2023-12-07T06:02:34;34.25;;;12.85;;
40807;SDS011;26523;52.504;13.498;2023-12-07T06:05:00;25.75;;;10.60;;
40807;SDS011;26523;52.504;13.498;2023-12-07T06:07:28;24.00;;;10.75;;
40807;SDS011;26523;52.504;13.498;2023-12-07T06:09:54;29.48;;;11.10;;
40807;SDS011;26523;52.504;13.498;2023-12-07T06:12:20;30.40;;;12.18;;
40807;SDS011;26523;52.504;13.498;2023-12-07T06:14:47;25.17;;;9.75;;
40807;SDS011;26523;52.504;13.498;2023-12-07T06:17:13;38.78;;;12.07;;
40807;SDS011;26523;52.504;13.498;2023-12-07T06:19:38;28.95;;;10.43;;
40807;SDS011;26523;52.504;13.498;2023-12-07T06:22:04;35.03;;;10.77;;
40807;SDS011;26523;52.504;13.498;2023-12-07T06:24:30;27.88;;;11.23;;
40807;SDS011;26523;52.504;13.498;2023-12-07T06:26:57;23.77;;;10.43;;
40807;SDS011;26523;52.504;13.498;2023-12-07T06:29:23;27.33;;;11.52;;
40807;SDS011;26523;52.504;13.498;2023-12-07T06:31:49;28.63;;;9.55;;
40807;SDS011;26523;52.504;13.498;2023-12-07T06:34:15;34.97;;;12.18;;
40807;SDS011;26523;52.504;13.498;2023-12-07T06:36:41;38.30;;;11.02;;
40807;SDS011;26523;52.504;13.498;2023-12-07T06:39:07;33.13;;;11.57;;
40807;SDS011;26523;52.504;13.498;2023-12-07T06:41:32;32.72;;;10.63;;
40807;SDS011;26523;52.504;13.498;2023-12-07T06:43:58;29.02;;;11.85;;
40807;SDS011;26523;52.504;13.498;2023-12-07T06:46:24;31.10;;;10.70;;
40807;SDS011;26523;52.504;13.498;2023-12-07T06:48:49;30.77;;;10.73;;
40807;SDS011;26523;52.504;13.498;2023-12-07T06:51:15;28.55;;;10.88;;
40807;SDS011;26523;52.504;13.498;2023-12-07T06:53:41;31.45;;;11.25;;
40807;SDS011;26523;52.504;13.498;2023-12-07T06:56:07;32.85;;;11.95;;
40807;SDS011;26523;52.504;13.498;2023-12-07T06:58:33;40.88;;;11.35;;
40807;SDS011;26523;52.504;13.498;2023-12-07T07:00:59;38.78;;;11.25;;
40807;SDS011;26523;52.504;13.498;2023-12-07T07:03:25;34.30;;;12.02;;
40807;SDS011;26523;52.504;13.498;2023-12-07T07:05:52;30.40;;;13.07;;
40807;SDS011;26523;52.504;13.498;2023-12-07T07:08:18;33.03;;;11.55;;
40807;SDS011;26523;52.504;13.498;2023-12-07T07:10:44;34.58;;;11.05;;
40807;SDS011;26523;52.504;13.498;2023-12-07T07:13:11;26.30;;;10.43;;
40807;SDS011;26523;52.504;13.498;2023-12-07T07:15:41;34.78;;;11.23;;
40807;SDS011;26523;52.504;13.498;2023-12-07T07:18:08;34.92;;;10.95;;
40807;SDS011;26523;52.504;13.498;2023-12-07T07:20:34;38.25;;;11.65;;
40807;SDS011;26523;52.504;13.498;2023-12-07T07:22:59;28.42;;;10.63;;
40807;SDS011;26523;52.504;13.498;2023-12-07T07:25:25;24.63;;;10.23;;
40807;SDS011;26523;52.504;13.498;2023-12-07T07:27:51;29.52;;;10.63;;
40807;SDS011;26523;52.504;13.498;2023-12-07T07:30:17;29.05;;;9.90;;
40807;SDS011;26523;52.504;13.498;2023-12-07T07:32:43;29.95;;;9.65;;
40807;SDS011;26523;52.504;13.498;2023-12-07T07:35:08;28.33;;;9.68;;
40807;SDS011;26523;52.504;13.498;2023-12-07T07:37:36;36.05;;;10.65;;
40807;SDS011;26523;52.504;13.498;2023-12-07T07:40:03;29.20;;;10.20;;
40807;SDS011;26523;52.504;13.498;2023-12-07T07:42:32;25.88;;;9.18;;
40807;SDS011;26523;52.504;13.498;2023-12-07T07:44:58;29.85;;;10.20;;
40807;SDS011;26523;52.504;13.498;2023-12-07T07:47:23;26.50;;;9.82;;
40807;SDS011;26523;52.504;13.498;2023-12-07T07:49:49;25.95;;;10.60;;
40807;SDS011;26523;52.504;13.498;2023-12-07T07:52:15;28.42;;;9.75;;
40807;SDS011;26523;52.504;13.498;2023-12-07T07:54:41;29.30;;;9.63;;
40807;SDS011;26523;52.504;13.498;2023-12-07T07:57:07;35.33;;;11.63;;
40807;SDS011;26523;52.504;13.498;2023-12-07T07:59:33;31.92;;;11.00;;
40807;SDS011;26523;52.504;13.498;2023-12-07T08:01:59;34.65;;;12.10;;
40807;SDS011;26523;52.504;13.498;2023-12-07T08:04:24;22.55;;;8.95;;
40807;SDS011;26523;52.504;13.498;2023-12-07T08:06:50;30.88;;;10.38;;
40807;SDS011;26523;52.504;13.498;2023-12-07T08:09:16;23.30;;;8.68;;
40807;SDS011;26523;52.504;13.498;2023-12-07T08:11:41;25.63;;;8.43;;
40807;SDS011;26523;52.504;13.498;2023-12-07T08:14:07;26.45;;;9.10;;
40807;SDS011;26523;52.504;13.498;2023-12-07T08:16:33;25.65;;;8.77;;
40807;SDS011;26523;52.504;13.498;2023-12-07T08:18:59;21.50;;;8.52;;
40807;SDS011;26523;52.504;13.498;2023-12-07T08:21:25;24.77;;;10.00;;
40807;SDS011;26523;52.504;13.498;2023-12-07T08:23:50;29.90;;;9.48;;
40807;SDS011;26523;52.504;13.498;2023-12-07T08:26:16;32.53;;;10.13;;
40807;SDS011;26523;52.504;13.498;2023-12-07T08:28:42;26.05;;;9.25;;
40807;SDS011;26523;52.504;13.498;2023-12-07T08:31:08;24.83;;;9.15;;
40807;SDS011;26523;52.504;13.498;2023-12-07T08:33:34;37.83;;;12.00;;
40807;SDS011;26523;52.504;13.498;2023-12-07T08:36:01;27.25;;;10.00;;
40807;SDS011;26523;52.504;13.498;2023-12-07T08:38:28;27.60;;;10.68;;
40807;SDS011;26523;52.504;13.498;2023-12-07T08:40:53;31.80;;;10.98;;
40807;SDS011;26523;52.504;13.498;2023-12-07T08:43:20;24.00;;;9.60;;
40807;SDS011;26523;52.504;13.498;2023-12-07T08:45:48;25.55;;;10.18;;
40807;SDS011;26523;52.504;13.498;2023-12-07T08:48:14;29.92;;;11.07;;
40807;SDS011;26523;52.504;13.498;2023-12-07T08:50:40;32.22;;;10.27;;
40807;SDS011;26523;52.504;13.498;2023-12-07T08:53:05;22.42;;;8.82;;
40807;SDS011;26523;52.504;13.498;2023-12-07T08:55:31;29.80;;;9.52;;
40807;SDS011;26523;52.504;13.498;2023-12-07T08:57:57;29.23;;;9.68;;
40807;SDS011;26523;52.504;13.498;2023-12-07T09:00:24;26.40;;;10.70;;
40807;SDS011;26523;52.504;13.498;2023-12-07T09:02:50;32.10;;;11.18;;
40807;SDS011;26523;52.504;13.498;2023-12-07T09:05:17;35.50;;;13.05;;
40807;SDS011;26523;52.504;13.498;2023-12-07T09:07:43;31.15;;;11.80;;
40807;SDS011;26523;52.504;13.498;2023-12-07T09:10:09;33.22;;;10.50;;
40807;SDS011;26523;52.504;13.498;2023-12-07T09:12:35;24.85;;;9.43;;
40807;SDS011;26523;52.504;13.498;2023-12-07T09:15:01;30.05;;;10.27;;
40807;SDS011;26523;52.504;13.498;2023-12-07T09:17:27;34.30;;;10.73;;
40807;SDS011;26523;52.504;13.498;2023-12-07T09:19:54;32.83;;;10.10;;
40807;SDS011;26523;52.504;13.498;2023-12-07T09:22:20;32.15;;;12.20;;
40807;SDS011;26523;52.504;13.498;2023-12-07T09:24:46;30.75;;;10.05;;
40807;SDS011;26523;52.504;13.498;2023-12-07T09:27:13;29.20;;;9.93;;
40807;SDS011;26523;52.504;13.498;2023-12-07T09:29:39;24.33;;;8.68;;
40807;SDS011;26523;52.504;13.498;2023-12-07T09:32:05;30.00;;;9.82;;
40807;SDS011;26523;52.504;13.498;2023-12-07T09:34:32;24.90;;;9.00;;
40807;SDS011;26523;52.504;13.498;2023-12-07T09:37:07;30.10;;;9.45;;
40807;SDS011;26523;52.504;13.498;2023-12-07T09:39:33;27.63;;;9.77;;
40807;SDS011;26523;52.504;13.498;2023-12-07T09:41:59;26.42;;;9.52;;
40807;SDS011;26523;52.504;13.498;2023-12-07T09:44:25;30.83;;;9.25;;
40807;SDS011;26523;52.504;13.498;2023-12-07T09:46:51;26.73;;;9.27;;
40807;SDS011;26523;52.504;13.498;2023-12-07T09:49:17;28.73;;;9.18;;
40807;SDS011;26523;52.504;13.498;2023-12-07T09:51:43;25.42;;;7.85;;
40807;SDS011;26523;52.504;13.498;2023-12-07T09:54:11;22.60;;;8.93;;
40807;SDS011;26523;52.504;13.498;2023-12-07T09:56:37;23.70;;;9.23;;
40807;SDS011;26523;52.504;13.498;2023-12-07T09:59:03;29.10;;;9.20;;
40807;SDS011;26523;52.504;13.498;2023-12-07T10:01:29;28.05;;;9.32;;
40807;SDS011;26523;52.504;13.498;2023-12-07T10:06:47;24.25;;;8.35;;
40807;SDS011;26523;52.504;13.498;2023-12-07T10:09:14;20.40;;;7.95;;
40807;SDS011;26523;52.504;13.498;2023-12-07T10:11:40;23.88;;;9.38;;
40807;SDS011;26523;52.504;13.498;2023-12-07T10:14:06;27.10;;;9.10;;
40807;SDS011;26523;52.504;13.498;2023-12-07T10:16:33;24.52;;;9.60;;
40807;SDS011;26523;52.504;13.498;2023-12-07T10:21:43;22.13;;;7.25;;
40807;SDS011;26523;52.504;13.498;2023-12-07T10:24:09;23.35;;;8.43;;
40807;SDS011;26523;52.504;13.498;2023-12-07T10:26:36;25.00;;;9.30;;
40807;SDS011;26523;52.504;13.498;2023-12-07T10:29:06;20.85;;;8.38;;
40807;SDS011;26523;52.504;13.498;2023-12-07T10:31:32;21.70;;;8.32;;
40807;SDS011;26523;52.504;13.498;2023-12-07T10:33:59;25.42;;;8.23;;
40807;SDS011;26523;52.504;13.498;2023-12-07T10:36:25;20.48;;;7.93;;
40807;SDS011;26523;52.504;13.498;2023-12-07T10:38:51;17.63;;;7.55;;
40807;SDS011;26523;52.504;13.498;2023-12-07T10:41:22;30.10;;;9.27;;
40807;SDS011;26523;52.504;13.498;2023-12-07T10:43:52;23.02;;;9.20;;
40807;SDS011;26523;52.504;13.498;2023-12-07T10:46:20;26.63;;;9.93;;
40807;SDS011;26523;52.504;13.498;2023-12-07T10:48:52;25.40;;;8.82;;
40807;SDS011;26523;52.504;13.498;2023-12-07T10:51:25;23.90;;;8.35;;
40807;SDS011;26523;52.504;13.498;2023-12-07T10:53:58;21.52;;;8.30;;
40807;SDS011;26523;52.504;13.498;2023-12-07T10:56:28;26.23;;;8.45;;
40807;SDS011;26523;52.504;13.498;2023-12-07T10:59:00;25.17;;;8.88;;
40807;SDS011;26523;52.504;13.498;2023-12-07T11:01:26;27.10;;;9.20;;
40807;SDS011;26523;52.504;13.498;2023-12-07T11:03:52;23.80;;;8.32;;
40807;SDS011;26523;52.504;13.498;2023-12-07T11:06:19;26.80;;;10.38;;
40807;SDS011;26523;52.504;13.498;2023-12-07T11:08:49;27.10;;;8.90;;
40807;SDS011;26523;52.504;13.498;2023-12-07T11:13:57;25.58;;;10.38;;
40807;SDS011;26523;52.504;13.498;2023-12-07T11:16:35;27.65;;;10.25;;
40807;SDS011;26523;52.504;13.498;2023-12-07T11:19:04;30.60;;;10.73;;
40807;SDS011;26523;52.504;13.498;2023-12-07T11:21:30;28.58;;;9.95;;
40807;SDS011;26523;52.504;13.498;2023-12-07T11:23:56;29.35;;;10.25;;
40807;SDS011;26523;52.504;13.498;2023-12-07T11:26:26;26.10;;;9.35;;
40807;SDS011;26523;52.504;13.498;2023-12-07T11:28:51;24.48;;;9.32;;
40807;SDS011;26523;52.504;13.498;2023-12-07T11:31:21;24.52;;;8.88;;
40807;SDS011;26523;52.504;13.498;2023-12-07T11:33:47;25.85;;;9.27;;
40807;SDS011;26523;52.504;13.498;2023-12-07T11:36:13;31.02;;;10.70;;
40807;SDS011;26523;52.504;13.498;2023-12-07T11:39:15;28.45;;;10.30;;
40807;SDS011;26523;52.504;13.498;2023-12-07T11:41:24;24.38;;;8.57;;
40807;SDS011;26523;52.504;13.498;2023-12-07T11:43:57;25.20;;;8.93;;
40807;SDS011;26523;52.504;13.498;2023-12-07T11:46:23;27.38;;;10.48;;
40807;SDS011;26523;52.504;13.498;2023-12-07T11:48:50;32.28;;;10.73;;
40807;SDS011;26523;52.504;13.498;2023-12-07T11:51:17;25.05;;;9.18;;
40807;SDS011;26523;52.504;13.498;2023-12-07T11:53:43;20.60;;;9.30;;
40807;SDS011;26523;52.504;13.498;2023-12-07T11:56:09;27.65;;;8.88;;
40807;SDS011;26523;52.504;13.498;2023-12-07T11:58:36;22.70;;;8.63;;
40807;SDS011;26523;52.504;13.498;2023-12-07T12:01:03;23.77;;;9.38;;
40807;SDS011;26523;52.504;13.498;2023-12-07T12:03:30;25.00;;;9.93;;
40807;SDS011;26523;52.504;13.498;2023-12-07T12:05:59;27.85;;;10.38;;
40807;SDS011;26523;52.504;13.498;2023-12-07T12:08:24;27.25;;;9.63;;
40807;SDS011;26523;52.504;13.498;2023-12-07T12:10:50;26.08;;;8.80;;
40807;SDS011;26523;52.504;13.498;2023-12-07T12:13:25;23.35;;;8.52;;
40807;SDS011;26523;52.504;13.498;2023-12-07T12:15:56;19.73;;;8.33;;
40807;SDS011;26523;52.504;13.498;2023-12-07T12:18:22;25.65;;;9.57;;
40807;SDS011;26523;52.504;13.498;2023-12-07T12:20:50;28.00;;;10.13;;
40807;SDS011;26523;52.504;13.498;2023-12-07T12:23:16;28.77;;;9.25;;
40807;SDS011;26523;52.504;13.498;2023-12-07T12:25:42;23.35;;;9.02;;
40807;SDS011;26523;52.504;13.498;2023-12-07T12:28:08;20.10;;;8.35;;
40807;SDS011;26523;52.504;13.498;2023-12-07T12:30:34;26.48;;;10.40;;
40807;SDS011;26523;52.504;13.498;2023-12-07T12:33:01;26.10;;;9.57;;
40807;SDS011;26523;52.504;13.498;2023-12-07T12:35:27;29.02;;;10.32;;
40807;SDS011;26523;52.504;13.498;2023-12-07T12:37:53;24.85;;;9.27;;
40807;SDS011;26523;52.504;13.498;2023-12-07T12:40:22;28.52;;;9.88;;
40807;SDS011;26523;52.504;13.498;2023-12-07T12:42:49;20.63;;;9.30;;
40807;SDS011;26523;52.504;13.498;2023-12-07T12:45:16;24.02;;;8.50;;
40807;SDS011;26523;52.504;13.498;2023-12-07T12:47:46;27.25;;;9.98;;
40807;SDS011;26523;52.504;13.498;2023-12-07T12:50:58;25.25;;;9.85;;
40807;SDS011;26523;52.504;13.498;2023-12-07T12:52:59;27.67;;;9.73;;
40807;SDS011;26523;52.504;13.498;2023-12-07T12:55:25;26.55;;;10.55;;
40807;SDS011;26523;52.504;13.498;2023-12-07T12:57:51;27.45;;;10.20;;
40807;SDS011;26523;52.504;13.498;2023-12-07T13:00:17;28.23;;;10.00;;
40807;SDS011;26523;52.504;13.498;2023-12-07T13:02:43;32.92;;;10.82;;
40807;SDS011;26523;52.504;13.498;2023-12-07T13:05:08;30.45;;;10.15;;
40807;SDS011;26523;52.504;13.498;2023-12-07T13:07:34;33.85;;;11.75;;
40807;SDS011;26523;52.504;13.498;2023-12-07T13:10:00;32.20;;;11.55;;
40807;SDS011;26523;52.504;13.498;2023-12-07T13:12:26;28.50;;;11.02;;
40807;SDS011;26523;52.504;13.498;2023-12-07T13:14:53;32.40;;;10.00;;
40807;SDS011;26523;52.504;13.498;2023-12-07T13:17:19;37.03;;;12.15;;
40807;SDS011;26523;52.504;13.498;2023-12-07T13:19:45;38.47;;;11.15;;
40807;SDS011;26523;52.504;13.498;2023-12-07T13:22:11;33.22;;;11.55;;
40807;SDS011;26523;52.504;13.498;2023-12-07T13:24:37;29.65;;;11.93;;
40807;SDS011;26523;52.504;13.498;2023-12-07T13:27:03;36.17;;;13.77;;
40807;SDS011;26523;52.504;13.498;2023-12-07T13:29:29;40.38;;;13.75;;
40807;SDS011;26523;52.504;13.498;2023-12-07T13:31:55;36.00;;;13.70;;
40807;SDS011;26523;52.504;13.498;2023-12-07T13:34:20;38.33;;;13.30;;
40807;SDS011;26523;52.504;13.498;2023-12-07T13:36:46;33.33;;;13.23;;
40807;SDS011;26523;52.504;13.498;2023-12-07T13:39:13;33.22;;;12.73;;
40807;SDS011;26523;52.504;13.498;2023-12-07T13:41:39;31.70;;;12.70;;
40807;SDS011;26523;52.504;13.498;2023-12-07T13:44:05;35.33;;;12.68;;
40807;SDS011;26523;52.504;13.498;2023-12-07T13:46:31;34.17;;;12.27;;
40807;SDS011;26523;52.504;13.498;2023-12-07T13:48:58;36.00;;;13.77;;
40807;SDS011;26523;52.504;13.498;2023-12-07T13:51:23;34.28;;;13.98;;
40807;SDS011;26523;52.504;13.498;2023-12-07T13:53:49;32.40;;;11.38;;
40807;SDS011;26523;52.504;13.498;2023-12-07T13:56:20;37.03;;;14.52;;
40807;SDS011;26523;52.504;13.498;2023-12-07T13:58:46;37.90;;;14.10;;
40807;SDS011;26523;52.504;13.498;2023-12-07T14:01:11;35.30;;;13.82;;
40807;SDS011;26523;52.504;13.498;2023-12-07T14:03:37;37.53;;;14.52;;
40807;SDS011;26523;52.504;13.498;2023-12-07T14:06:03;37.33;;;14.43;;
40807;SDS011;26523;52.504;13.498;2023-12-07T14:08:28;36.85;;;14.23;;
40807;SDS011;26523;52.504;13.498;2023-12-07T14:10:56;42.25;;;15.10;;
40807;SDS011;26523;52.504;13.498;2023-12-07T14:13:22;40.30;;;14.38;;
40807;SDS011;26523;52.504;13.498;2023-12-07T14:15:49;35.65;;;13.13;;
40807;SDS011;26523;52.504;13.498;2023-12-07T14:18:14;43.17;;;15.63;;
40807;SDS011;26523;52.504;13.498;2023-12-07T14:20:41;43.33;;;15.30;;